Ponca, Arkansas
Current Conditions -  °F | °C
As of 6:53 AM on Saturday 25 Oct 2014 (Local Time) from KHRO Reporting Station
Clear Clear  
Wind Chill: 67°   Ceiling: Unl
Heat Index: 67°   Visibility: 10mi
Dew Point: 59°   Wind: 8mph
Humidity: 76%   Direction: 270°W
Pressure: 30.09"   Gusts: NA
Location:  36.02°N, 93.37°W
Report Text: KHRO 251153Z AUTO 27007KT 10SM CLR 19/15 A3009 RMK AO2 SLP178 T01940150 10194 20150 50006
Loading
Personal Weather Stations






























Interactive Weather Map
Tropical Storm Tracking
New forecast layout! Learn more

10-Day Weather Forecast

Advertisements
Track Severe Weather on mobile